sensor_id;sensor_type;location;lat;lon;timestamp;temperature;humidity
70708;SHT30;58277;47.316;18.908;2023-05-28T00:00:39;16.90;56.95
70708;SHT30;58277;47.316;18.908;2023-05-28T00:03:01;16.88;57.34
70708;SHT30;58277;47.316;18.908;2023-05-28T00:05:24;16.90;56.59
70708;SHT30;58277;47.316;18.908;2023-05-28T00:07:47;16.96;56.76
70708;SHT30;58277;47.316;18.908;2023-05-28T00:10:10;16.97;57.79
70708;SHT30;58277;47.316;18.908;2023-05-28T00:12:33;17.07;57.15
70708;SHT30;58277;47.316;18.908;2023-05-28T00:14:56;16.88;57.95
70708;SHT30;58277;47.316;18.908;2023-05-28T00:17:18;16.96;56.69
70708;SHT30;58277;47.316;18.908;2023-05-28T00:19:41;16.97;57.11
70708;SHT30;58277;47.316;18.908;2023-05-28T00:22:05;16.88;58.10
70708;SHT30;58277;47.316;18.908;2023-05-28T00:24:27;16.81;57.29
70708;SHT30;58277;47.316;18.908;2023-05-28T00:26:50;16.76;56.67
70708;SHT30;58277;47.316;18.908;2023-05-28T00:29:13;16.73;56.20
70708;SHT30;58277;47.316;18.908;2023-05-28T00:31:36;16.80;56.47
70708;SHT30;58277;47.316;18.908;2023-05-28T00:33:59;16.79;56.43
70708;SHT30;58277;47.316;18.908;2023-05-28T00:36:22;16.72;56.51
70708;SHT30;58277;47.316;18.908;2023-05-28T00:38:46;16.66;56.76
70708;SHT30;58277;47.316;18.908;2023-05-28T00:41:09;16.58;57.35
70708;SHT30;58277;47.316;18.908;2023-05-28T00:43:32;16.48;58.33
70708;SHT30;58277;47.316;18.908;2023-05-28T00:45:56;16.46;58.24
70708;SHT30;58277;47.316;18.908;2023-05-28T00:48:20;16.36;59.15
70708;SHT30;58277;47.316;18.908;2023-05-28T00:50:43;16.33;58.07
70708;SHT30;58277;47.316;18.908;2023-05-28T00:53:06;16.22;57.49
70708;SHT30;58277;47.316;18.908;2023-05-28T00:55:29;16.26;57.37
70708;SHT30;58277;47.316;18.908;2023-05-28T00:57:52;16.35;56.06
70708;SHT30;58277;47.316;18.908;2023-05-28T01:00:17;16.07;56.77
70708;SHT30;58277;47.316;18.908;2023-05-28T01:02:42;16.21;56.28
70708;SHT30;58277;47.316;18.908;2023-05-28T01:05:05;16.17;56.24
70708;SHT30;58277;47.316;18.908;2023-05-28T01:07:29;16.15;56.71
70708;SHT30;58277;47.316;18.908;2023-05-28T01:09:52;16.08;56.66
70708;SHT30;58277;47.316;18.908;2023-05-28T01:12:16;16.12;56.16
70708;SHT30;58277;47.316;18.908;2023-05-28T01:14:40;16.21;55.24
70708;SHT30;58277;47.316;18.908;2023-05-28T01:17:04;16.15;55.42
70708;SHT30;58277;47.316;18.908;2023-05-28T01:19:28;16.07;56.82
70708;SHT30;58277;47.316;18.908;2023-05-28T01:22:00;15.98;56.09
70708;SHT30;58277;47.316;18.908;2023-05-28T01:24:26;15.97;55.04
70708;SHT30;58277;47.316;18.908;2023-05-28T01:26:51;15.93;54.88
70708;SHT30;58277;47.316;18.908;2023-05-28T01:29:15;15.96;55.09
70708;SHT30;58277;47.316;18.908;2023-05-28T01:31:39;15.84;54.73
70708;SHT30;58277;47.316;18.908;2023-05-28T01:34:02;15.91;55.13
70708;SHT30;58277;47.316;18.908;2023-05-28T01:36:29;15.94;54.60
70708;SHT30;58277;47.316;18.908;2023-05-28T01:38:55;15.90;55.28
70708;SHT30;58277;47.316;18.908;2023-05-28T01:41:23;15.91;54.34
70708;SHT30;58277;47.316;18.908;2023-05-28T01:43:46;15.90;54.86
70708;SHT30;58277;47.316;18.908;2023-05-28T01:46:09;15.89;54.37
70708;SHT30;58277;47.316;18.908;2023-05-28T01:48:33;15.80;54.76
70708;SHT30;58277;47.316;18.908;2023-05-28T01:50:56;15.89;54.39
70708;SHT30;58277;47.316;18.908;2023-05-28T01:53:19;15.76;55.63
70708;SHT30;58277;47.316;18.908;2023-05-28T01:56:03;15.83;54.83
70708;SHT30;58277;47.316;18.908;2023-05-28T01:58:26;15.64;53.87
70708;SHT30;58277;47.316;18.908;2023-05-28T02:01:00;15.76;54.19
70708;SHT30;58277;47.316;18.908;2023-05-28T02:03:25;15.62;53.32
70708;SHT30;58277;47.316;18.908;2023-05-28T02:05:48;15.62;53.29
70708;SHT30;58277;47.316;18.908;2023-05-28T02:08:10;15.47;53.49
70708;SHT30;58277;47.316;18.908;2023-05-28T02:10:33;15.45;53.16
70708;SHT30;58277;47.316;18.908;2023-05-28T02:12:56;15.46;53.43
70708;SHT30;58277;47.316;18.908;2023-05-28T02:15:20;15.66;52.87
70708;SHT30;58277;47.316;18.908;2023-05-28T02:17:44;15.59;53.00
70708;SHT30;58277;47.316;18.908;2023-05-28T02:20:08;15.64;52.96
70708;SHT30;58277;47.316;18.908;2023-05-28T02:22:32;15.63;53.01
70708;SHT30;58277;47.316;18.908;2023-05-28T02:24:54;15.59;53.02
70708;SHT30;58277;47.316;18.908;2023-05-28T02:27:17;15.43;53.90
70708;SHT30;58277;47.316;18.908;2023-05-28T02:29:40;15.46;53.64
70708;SHT30;58277;47.316;18.908;2023-05-28T02:32:05;15.50;53.58
70708;SHT30;58277;47.316;18.908;2023-05-28T02:34:28;15.49;53.57
70708;SHT30;58277;47.316;18.908;2023-05-28T02:36:51;15.49;53.44
70708;SHT30;58277;47.316;18.908;2023-05-28T02:39:15;15.49;53.76
70708;SHT30;58277;47.316;18.908;2023-05-28T02:41:39;15.32;54.55
70708;SHT30;58277;47.316;18.908;2023-05-28T02:44:02;15.47;53.90
70708;SHT30;58277;47.316;18.908;2023-05-28T02:46:24;15.50;54.15
70708;SHT30;58277;47.316;18.908;2023-05-28T02:48:47;15.50;53.97
70708;SHT30;58277;47.316;18.908;2023-05-28T02:51:13;15.52;54.42
70708;SHT30;58277;47.316;18.908;2023-05-28T02:53:58;15.54;53.67
70708;SHT30;58277;47.316;18.908;2023-05-28T02:56:21;15.56;54.00
70708;SHT30;58277;47.316;18.908;2023-05-28T02:58:44;15.39;54.47
70708;SHT30;58277;47.316;18.908;2023-05-28T03:01:09;15.46;54.64
70708;SHT30;58277;47.316;18.908;2023-05-28T03:03:32;15.33;55.08
70708;SHT30;58277;47.316;18.908;2023-05-28T03:05:55;15.33;54.80
70708;SHT30;58277;47.316;18.908;2023-05-28T03:08:18;15.24;55.46
70708;SHT30;58277;47.316;18.908;2023-05-28T03:10:42;15.47;54.86
70708;SHT30;58277;47.316;18.908;2023-05-28T03:13:04;15.56;54.77
70708;SHT30;58277;47.316;18.908;2023-05-28T03:15:28;15.62;54.53
70708;SHT30;58277;47.316;18.908;2023-05-28T03:17:50;15.67;54.30
70708;SHT30;58277;47.316;18.908;2023-05-28T03:20:13;15.45;55.22
70708;SHT30;58277;47.316;18.908;2023-05-28T03:22:36;15.54;55.09
70708;SHT30;58277;47.316;18.908;2023-05-28T03:24:59;15.62;55.31
70708;SHT30;58277;47.316;18.908;2023-05-28T03:27:22;15.66;55.03
70708;SHT30;58277;47.316;18.908;2023-05-28T03:29:45;15.71;54.79
70708;SHT30;58277;47.316;18.908;2023-05-28T03:32:36;15.96;54.31
70708;SHT30;58277;47.316;18.908;2023-05-28T03:34:58;16.01;54.29
70708;SHT30;58277;47.316;18.908;2023-05-28T03:37:25;16.12;53.74
70708;SHT30;58277;47.316;18.908;2023-05-28T03:39:49;16.02;54.00
70708;SHT30;58277;47.316;18.908;2023-05-28T03:42:12;16.22;53.97
70708;SHT30;58277;47.316;18.908;2023-05-28T03:44:35;16.36;54.48
70708;SHT30;58277;47.316;18.908;2023-05-28T03:46:58;16.39;53.84
70708;SHT30;58277;47.316;18.908;2023-05-28T03:49:21;16.49;53.54
70708;SHT30;58277;47.316;18.908;2023-05-28T03:51:44;16.36;53.94
70708;SHT30;58277;47.316;18.908;2023-05-28T03:54:07;16.55;54.97
70708;SHT30;58277;47.316;18.908;2023-05-28T03:56:30;16.75;54.59
70708;SHT30;58277;47.316;18.908;2023-05-28T03:58:53;16.84;53.04
70708;SHT30;58277;47.316;18.908;2023-05-28T04:01:15;16.94;52.70
70708;SHT30;58277;47.316;18.908;2023-05-28T04:03:38;16.97;52.98
70708;SHT30;58277;47.316;18.908;2023-05-28T04:06:01;16.91;53.55
70708;SHT30;58277;47.316;18.908;2023-05-28T04:08:25;16.91;53.43
70708;SHT30;58277;47.316;18.908;2023-05-28T04:10:47;17.13;54.01
70708;SHT30;58277;47.316;18.908;2023-05-28T04:13:10;17.21;53.62
70708;SHT30;58277;47.316;18.908;2023-05-28T04:15:33;17.24;53.73
70708;SHT30;58277;47.316;18.908;2023-05-28T04:17:56;17.25;53.30
70708;SHT30;58277;47.316;18.908;2023-05-28T04:20:19;17.14;53.38
70708;SHT30;58277;47.316;18.908;2023-05-28T04:22:43;17.27;53.21
70708;SHT30;58277;47.316;18.908;2023-05-28T04:25:06;17.46;53.11
70708;SHT30;58277;47.316;18.908;2023-05-28T04:27:30;17.66;51.98
70708;SHT30;58277;47.316;18.908;2023-05-28T04:29:54;17.59;53.86
70708;SHT30;58277;47.316;18.908;2023-05-28T04:32:19;17.49;52.68
70708;SHT30;58277;47.316;18.908;2023-05-28T04:34:42;17.49;53.11
70708;SHT30;58277;47.316;18.908;2023-05-28T04:37:06;17.61;53.21
70708;SHT30;58277;47.316;18.908;2023-05-28T04:39:30;17.86;52.46
70708;SHT30;58277;47.316;18.908;2023-05-28T04:41:52;17.79;52.36
70708;SHT30;58277;47.316;18.908;2023-05-28T04:44:16;17.68;52.50
70708;SHT30;58277;47.316;18.908;2023-05-28T04:46:39;17.69;52.78
70708;SHT30;58277;47.316;18.908;2023-05-28T04:49:03;17.82;52.73
70708;SHT30;58277;47.316;18.908;2023-05-28T04:51:26;17.91;52.49
70708;SHT30;58277;47.316;18.908;2023-05-28T04:53:49;17.89;52.21
70708;SHT30;58277;47.316;18.908;2023-05-28T04:56:13;18.00;52.69
70708;SHT30;58277;47.316;18.908;2023-05-28T04:58:36;18.06;52.28
70708;SHT30;58277;47.316;18.908;2023-05-28T05:00:59;18.14;52.52
70708;SHT30;58277;47.316;18.908;2023-05-28T05:03:22;18.28;52.25
70708;SHT30;58277;47.316;18.908;2023-05-28T05:05:45;18.54;51.87
70708;SHT30;58277;47.316;18.908;2023-05-28T05:08:09;18.54;52.01
70708;SHT30;58277;47.316;18.908;2023-05-28T05:10:37;18.61;52.08
70708;SHT30;58277;47.316;18.908;2023-05-28T05:13:00;18.69;50.86
70708;SHT30;58277;47.316;18.908;2023-05-28T05:15:23;18.62;51.49
70708;SHT30;58277;47.316;18.908;2023-05-28T05:17:46;18.85;51.45
70708;SHT30;58277;47.316;18.908;2023-05-28T05:20:09;18.71;50.71
70708;SHT30;58277;47.316;18.908;2023-05-28T05:22:53;18.66;51.19
70708;SHT30;58277;47.316;18.908;2023-05-28T05:25:41;18.72;51.29
70708;SHT30;58277;47.316;18.908;2023-05-28T05:28:06;18.86;52.82
70708;SHT30;58277;47.316;18.908;2023-05-28T05:30:29;18.77;51.70
70708;SHT30;58277;47.316;18.908;2023-05-28T05:32:53;18.91;51.50
70708;SHT30;58277;47.316;18.908;2023-05-28T05:35:17;19.03;52.01
70708;SHT30;58277;47.316;18.908;2023-05-28T05:38:00;19.13;51.55
70708;SHT30;58277;47.316;18.908;2023-05-28T05:40:43;19.13;52.77
70708;SHT30;58277;47.316;18.908;2023-05-28T05:43:15;19.38;50.48
70708;SHT30;58277;47.316;18.908;2023-05-28T05:45:39;19.51;50.59
70708;SHT30;58277;47.316;18.908;2023-05-28T05:48:02;19.62;51.28
70708;SHT30;58277;47.316;18.908;2023-05-28T05:50:25;19.95;48.24
70708;SHT30;58277;47.316;18.908;2023-05-28T05:52:48;20.15;48.47
70708;SHT30;58277;47.316;18.908;2023-05-28T05:55:11;19.83;48.32
70708;SHT30;58277;47.316;18.908;2023-05-28T05:57:34;19.64;48.90
70708;SHT30;58277;47.316;18.908;2023-05-28T05:59:59;19.78;48.56
70708;SHT30;58277;47.316;18.908;2023-05-28T06:02:22;19.62;47.94
70708;SHT30;58277;47.316;18.908;2023-05-28T06:04:45;19.53;49.44
70708;SHT30;58277;47.316;18.908;2023-05-28T06:07:21;19.72;49.52
70708;SHT30;58277;47.316;18.908;2023-05-28T06:09:52;19.90;50.00
70708;SHT30;58277;47.316;18.908;2023-05-28T06:12:19;20.36;48.14
70708;SHT30;58277;47.316;18.908;2023-05-28T06:14:43;20.34;47.50
70708;SHT30;58277;47.316;18.908;2023-05-28T06:17:06;20.43;49.00
70708;SHT30;58277;47.316;18.908;2023-05-28T06:19:28;20.53;47.92
70708;SHT30;58277;47.316;18.908;2023-05-28T06:21:52;20.64;47.38
70708;SHT30;58277;47.316;18.908;2023-05-28T06:24:14;20.84;47.07
70708;SHT30;58277;47.316;18.908;2023-05-28T06:26:40;20.81;45.85
70708;SHT30;58277;47.316;18.908;2023-05-28T06:29:03;20.99;46.61
70708;SHT30;58277;47.316;18.908;2023-05-28T06:31:28;21.11;46.45
70708;SHT30;58277;47.316;18.908;2023-05-28T06:33:51;21.06;46.28
70708;SHT30;58277;47.316;18.908;2023-05-28T06:36:14;21.11;46.92
70708;SHT30;58277;47.316;18.908;2023-05-28T06:38:38;20.65;47.31
70708;SHT30;58277;47.316;18.908;2023-05-28T06:41:01;20.77;47.61
70708;SHT30;58277;47.316;18.908;2023-05-28T06:43:29;20.80;47.84
70708;SHT30;58277;47.316;18.908;2023-05-28T06:46:02;21.23;45.16
70708;SHT30;58277;47.316;18.908;2023-05-28T06:48:26;21.05;45.45
70708;SHT30;58277;47.316;18.908;2023-05-28T06:50:48;20.95;46.37
70708;SHT30;58277;47.316;18.908;2023-05-28T06:53:11;20.73;46.85
70708;SHT30;58277;47.316;18.908;2023-05-28T06:55:34;20.92;46.09
70708;SHT30;58277;47.316;18.908;2023-05-28T06:58:28;20.71;47.16
70708;SHT30;58277;47.316;18.908;2023-05-28T07:01:07;20.96;45.98
70708;SHT30;58277;47.316;18.908;2023-05-28T07:03:42;20.85;45.64
70708;SHT30;58277;47.316;18.908;2023-05-28T07:06:15;20.88;45.91
70708;SHT30;58277;47.316;18.908;2023-05-28T07:08:39;20.98;47.35
70708;SHT30;58277;47.316;18.908;2023-05-28T07:11:07;21.26;45.44
70708;SHT30;58277;47.316;18.908;2023-05-28T07:13:31;21.60;46.75
70708;SHT30;58277;47.316;18.908;2023-05-28T07:15:54;21.25;46.56
70708;SHT30;58277;47.316;18.908;2023-05-28T07:18:17;21.25;46.43
70708;SHT30;58277;47.316;18.908;2023-05-28T07:20:40;21.12;47.19
70708;SHT30;58277;47.316;18.908;2023-05-28T07:23:11;21.59;45.97
70708;SHT30;58277;47.316;18.908;2023-05-28T07:25:35;21.57;45.01
70708;SHT30;58277;47.316;18.908;2023-05-28T07:27:57;21.81;45.15
70708;SHT30;58277;47.316;18.908;2023-05-28T07:30:26;21.83;45.51
70708;SHT30;58277;47.316;18.908;2023-05-28T07:32:53;21.67;45.94
70708;SHT30;58277;47.316;18.908;2023-05-28T07:35:17;21.80;44.96
70708;SHT30;58277;47.316;18.908;2023-05-28T07:37:39;21.95;46.92
70708;SHT30;58277;47.316;18.908;2023-05-28T07:40:03;22.00;45.76
70708;SHT30;58277;47.316;18.908;2023-05-28T07:42:29;21.57;45.81
70708;SHT30;58277;47.316;18.908;2023-05-28T07:44:56;21.71;45.88
70708;SHT30;58277;47.316;18.908;2023-05-28T07:47:20;21.66;47.35
70708;SHT30;58277;47.316;18.908;2023-05-28T07:50:09;21.74;47.17
70708;SHT30;58277;47.316;18.908;2023-05-28T07:53:05;22.07;45.47
70708;SHT30;58277;47.316;18.908;2023-05-28T07:55:28;22.26;45.72
70708;SHT30;58277;47.316;18.908;2023-05-28T07:57:51;22.24;44.86
70708;SHT30;58277;47.316;18.908;2023-05-28T08:00:14;22.12;46.66
70708;SHT30;58277;47.316;18.908;2023-05-28T08:02:56;22.21;45.31
70708;SHT30;58277;47.316;18.908;2023-05-28T08:05:30;22.04;45.32
70708;SHT30;58277;47.316;18.908;2023-05-28T08:07:53;21.98;46.25
70708;SHT30;58277;47.316;18.908;2023-05-28T08:10:16;21.88;46.40
70708;SHT30;58277;47.316;18.908;2023-05-28T08:12:39;21.90;46.15
70708;SHT30;58277;47.316;18.908;2023-05-28T08:15:03;22.02;48.44
70708;SHT30;58277;47.316;18.908;2023-05-28T08:17:30;22.26;47.24
70708;SHT30;58277;47.316;18.908;2023-05-28T08:20:00;21.98;45.62
70708;SHT30;58277;47.316;18.908;2023-05-28T08:22:39;22.08;46.07
70708;SHT30;58277;47.316;18.908;2023-05-28T08:25:04;22.24;47.85
70708;SHT30;58277;47.316;18.908;2023-05-28T08:27:27;22.66;46.39
70708;SHT30;58277;47.316;18.908;2023-05-28T08:29:50;22.72;46.71
70708;SHT30;58277;47.316;18.908;2023-05-28T08:32:13;22.63;46.73
70708;SHT30;58277;47.316;18.908;2023-05-28T08:34:37;22.49;46.05
70708;SHT30;58277;47.316;18.908;2023-05-28T08:37:00;22.62;45.46
70708;SHT30;58277;47.316;18.908;2023-05-28T08:39:28;22.39;46.24
70708;SHT30;58277;47.316;18.908;2023-05-28T08:41:53;22.46;44.26
70708;SHT30;58277;47.316;18.908;2023-05-28T08:44:15;22.32;45.32
70708;SHT30;58277;47.316;18.908;2023-05-28T08:46:39;22.31;45.83
70708;SHT30;58277;47.316;18.908;2023-05-28T08:49:20;22.36;47.37
70708;SHT30;58277;47.316;18.908;2023-05-28T08:51:48;22.63;45.13
70708;SHT30;58277;47.316;18.908;2023-05-28T08:54:14;22.14;45.51
70708;SHT30;58277;47.316;18.908;2023-05-28T08:56:39;22.19;45.42
70708;SHT30;58277;47.316;18.908;2023-05-28T08:59:02;22.64;45.96
70708;SHT30;58277;47.316;18.908;2023-05-28T09:01:28;22.96;46.41
70708;SHT30;58277;47.316;18.908;2023-05-28T09:04:03;22.55;45.22
70708;SHT30;58277;47.316;18.908;2023-05-28T09:06:31;22.70;46.50
70708;SHT30;58277;47.316;18.908;2023-05-28T09:08:56;22.84;45.19
70708;SHT30;58277;47.316;18.908;2023-05-28T09:11:32;22.69;45.32
70708;SHT30;58277;47.316;18.908;2023-05-28T09:13:56;22.56;46.18
70708;SHT30;58277;47.316;18.908;2023-05-28T09:16:23;22.77;45.44
70708;SHT30;58277;47.316;18.908;2023-05-28T09:19:02;22.86;47.52
70708;SHT30;58277;47.316;18.908;2023-05-28T09:21:26;22.86;45.45
70708;SHT30;58277;47.316;18.908;2023-05-28T09:23:51;22.83;45.26
70708;SHT30;58277;47.316;18.908;2023-05-28T09:26:23;22.97;44.71
70708;SHT30;58277;47.316;18.908;2023-05-28T09:28:54;23.28;43.50
70708;SHT30;58277;47.316;18.908;2023-05-28T09:31:17;23.35;44.66
70708;SHT30;58277;47.316;18.908;2023-05-28T09:33:47;23.06;44.27
70708;SHT30;58277;47.316;18.908;2023-05-28T09:36:09;23.07;44.32
70708;SHT30;58277;47.316;18.908;2023-05-28T09:38:40;23.54;45.15
70708;SHT30;58277;47.316;18.908;2023-05-28T09:41:02;23.66;42.73
70708;SHT30;58277;47.316;18.908;2023-05-28T09:43:28;23.55;41.54
70708;SHT30;58277;47.316;18.908;2023-05-28T09:46:08;23.63;41.85
70708;SHT30;58277;47.316;18.908;2023-05-28T09:48:31;23.66;43.19
70708;SHT30;58277;47.316;18.908;2023-05-28T09:50:54;23.37;42.59
70708;SHT30;58277;47.316;18.908;2023-05-28T09:53:18;23.54;42.91
70708;SHT30;58277;47.316;18.908;2023-05-28T09:55:41;23.59;42.39
70708;SHT30;58277;47.316;18.908;2023-05-28T09:58:05;23.37;41.40
70708;SHT30;58277;47.316;18.908;2023-05-28T10:00:38;23.42;40.73
70708;SHT30;58277;47.316;18.908;2023-05-28T10:03:13;23.59;42.47
70708;SHT30;58277;47.316;18.908;2023-05-28T10:05:41;23.49;42.31
70708;SHT30;58277;47.316;18.908;2023-05-28T10:08:05;23.82;43.21
70708;SHT30;58277;47.316;18.908;2023-05-28T10:10:30;23.52;43.21
70708;SHT30;58277;47.316;18.908;2023-05-28T10:12:54;23.58;43.92
70708;SHT30;58277;47.316;18.908;2023-05-28T10:15:17;23.61;42.75
70708;SHT30;58277;47.316;18.908;2023-05-28T10:17:40;23.63;42.33
70708;SHT30;58277;47.316;18.908;2023-05-28T10:20:03;23.61;42.29
70708;SHT30;58277;47.316;18.908;2023-05-28T10:22:27;24.09;41.63
70708;SHT30;58277;47.316;18.908;2023-05-28T10:24:51;24.38;40.32
70708;SHT30;58277;47.316;18.908;2023-05-28T10:27:15;24.37;40.36
70708;SHT30;58277;47.316;18.908;2023-05-28T10:29:39;24.07;41.06
70708;SHT30;58277;47.316;18.908;2023-05-28T10:32:04;24.20;40.18
70708;SHT30;58277;47.316;18.908;2023-05-28T10:34:31;24.30;41.23
70708;SHT30;58277;47.316;18.908;2023-05-28T10:36:56;24.34;40.49
70708;SHT30;58277;47.316;18.908;2023-05-28T10:39:25;23.85;40.42
70708;SHT30;58277;47.316;18.908;2023-05-28T10:41:48;23.70;42.30
70708;SHT30;58277;47.316;18.908;2023-05-28T10:44:11;24.03;40.30
70708;SHT30;58277;47.316;18.908;2023-05-28T10:46:38;24.20;41.77
70708;SHT30;58277;47.316;18.908;2023-05-28T10:49:14;24.33;40.00
70708;SHT30;58277;47.316;18.908;2023-05-28T10:52:00;24.13;38.48
70708;SHT30;58277;47.316;18.908;2023-05-28T10:54:24;24.14;40.51
70708;SHT30;58277;47.316;18.908;2023-05-28T10:57:13;24.33;38.61
70708;SHT30;58277;47.316;18.908;2023-05-28T10:59:52;24.12;39.92
70708;SHT30;58277;47.316;18.908;2023-05-28T11:02:27;24.18;39.78
70708;SHT30;58277;47.316;18.908;2023-05-28T11:04:55;24.38;40.55
70708;SHT30;58277;47.316;18.908;2023-05-28T11:07:19;24.38;38.42
70708;SHT30;58277;47.316;18.908;2023-05-28T11:09:42;24.54;38.32
70708;SHT30;58277;47.316;18.908;2023-05-28T11:12:09;24.65;39.81
70708;SHT30;58277;47.316;18.908;2023-05-28T11:14:36;24.51;42.04
70708;SHT30;58277;47.316;18.908;2023-05-28T11:16:59;24.86;40.94
70708;SHT30;58277;47.316;18.908;2023-05-28T11:19:22;24.90;40.09
70708;SHT30;58277;47.316;18.908;2023-05-28T11:21:54;24.79;39.37
70708;SHT30;58277;47.316;18.908;2023-05-28T11:24:21;24.85;40.07
70708;SHT30;58277;47.316;18.908;2023-05-28T11:26:44;25.06;41.71
70708;SHT30;58277;47.316;18.908;2023-05-28T11:29:07;24.61;39.59
70708;SHT30;58277;47.316;18.908;2023-05-28T11:31:30;24.47;40.80
70708;SHT30;58277;47.316;18.908;2023-05-28T11:33:54;24.44;40.87
70708;SHT30;58277;47.316;18.908;2023-05-28T11:36:20;24.52;40.55
70708;SHT30;58277;47.316;18.908;2023-05-28T11:38:43;24.81;38.21
70708;SHT30;58277;47.316;18.908;2023-05-28T11:41:06;24.85;37.84
70708;SHT30;58277;47.316;18.908;2023-05-28T11:43:28;24.81;39.20
70708;SHT30;58277;47.316;18.908;2023-05-28T11:45:56;24.73;38.21
70708;SHT30;58277;47.316;18.908;2023-05-28T11:48:19;24.64;38.48
70708;SHT30;58277;47.316;18.908;2023-05-28T11:50:43;24.85;38.54
70708;SHT30;58277;47.316;18.908;2023-05-28T11:53:06;24.86;38.05
70708;SHT30;58277;47.316;18.908;2023-05-28T11:55:28;24.92;38.26
70708;SHT30;58277;47.316;18.908;2023-05-28T11:57:52;25.23;39.22
70708;SHT30;58277;47.316;18.908;2023-05-28T12:00:17;25.34;38.22
70708;SHT30;58277;47.316;18.908;2023-05-28T12:02:51;25.20;37.18
70708;SHT30;58277;47.316;18.908;2023-05-28T12:05:16;24.85;38.21
70708;SHT30;58277;47.316;18.908;2023-05-28T12:07:47;24.98;37.35
70708;SHT30;58277;47.316;18.908;2023-05-28T12:10:11;25.12;38.16
70708;SHT30;58277;47.316;18.908;2023-05-28T12:12:39;25.03;38.98
70708;SHT30;58277;47.316;18.908;2023-05-28T12:15:04;24.92;38.76
70708;SHT30;58277;47.316;18.908;2023-05-28T12:17:27;25.12;38.62
70708;SHT30;58277;47.316;18.908;2023-05-28T12:19:59;25.15;37.86
70708;SHT30;58277;47.316;18.908;2023-05-28T12:22:23;25.05;38.22
70708;SHT30;58277;47.316;18.908;2023-05-28T12:24:52;25.05;37.65
70708;SHT30;58277;47.316;18.908;2023-05-28T12:27:16;24.90;39.08
70708;SHT30;58277;47.316;18.908;2023-05-28T12:29:39;25.23;38.54
70708;SHT30;58277;47.316;18.908;2023-05-28T12:32:04;25.30;38.05
70708;SHT30;58277;47.316;18.908;2023-05-28T12:34:27;25.33;37.47
70708;SHT30;58277;47.316;18.908;2023-05-28T12:36:49;25.03;38.61
70708;SHT30;58277;47.316;18.908;2023-05-28T12:39:13;24.96;38.39
70708;SHT30;58277;47.316;18.908;2023-05-28T12:41:35;25.10;36.75
70708;SHT30;58277;47.316;18.908;2023-05-28T12:43:58;25.08;38.06
70708;SHT30;58277;47.316;18.908;2023-05-28T12:46:21;24.93;38.08
70708;SHT30;58277;47.316;18.908;2023-05-28T12:48:43;25.26;37.24
70708;SHT30;58277;47.316;18.908;2023-05-28T12:51:06;25.51;37.66
70708;SHT30;58277;47.316;18.908;2023-05-28T12:53:30;25.60;36.99
70708;SHT30;58277;47.316;18.908;2023-05-28T12:55:53;25.41;37.22
70708;SHT30;58277;47.316;18.908;2023-05-28T12:58:15;25.41;37.96
70708;SHT30;58277;47.316;18.908;2023-05-28T13:00:38;25.46;38.71
70708;SHT30;58277;47.316;18.908;2023-05-28T13:03:01;25.60;37.87
70708;SHT30;58277;47.316;18.908;2023-05-28T13:05:25;25.58;36.34
70708;SHT30;58277;47.316;18.908;2023-05-28T13:07:48;25.44;37.41
70708;SHT30;58277;47.316;18.908;2023-05-28T13:10:11;25.37;37.11
70708;SHT30;58277;47.316;18.908;2023-05-28T13:12:36;25.38;36.74
70708;SHT30;58277;47.316;18.908;2023-05-28T13:14:59;25.50;37.62
70708;SHT30;58277;47.316;18.908;2023-05-28T13:17:22;25.38;37.58
70708;SHT30;58277;47.316;18.908;2023-05-28T13:19:45;25.51;37.18
70708;SHT30;58277;47.316;18.908;2023-05-28T13:22:08;25.36;37.46
70708;SHT30;58277;47.316;18.908;2023-05-28T13:24:36;25.44;36.32
70708;SHT30;58277;47.316;18.908;2023-05-28T13:27:08;25.10;37.51
70708;SHT30;58277;47.316;18.908;2023-05-28T13:29:31;25.27;36.82
70708;SHT30;58277;47.316;18.908;2023-05-28T13:31:54;25.46;36.77
70708;SHT30;58277;47.316;18.908;2023-05-28T13:34:17;25.46;37.37
70708;SHT30;58277;47.316;18.908;2023-05-28T13:36:39;25.47;36.60
70708;SHT30;58277;47.316;18.908;2023-05-28T13:39:02;25.15;36.98
70708;SHT30;58277;47.316;18.908;2023-05-28T13:41:26;25.16;38.45
70708;SHT30;58277;47.316;18.908;2023-05-28T13:43:49;25.09;37.03
70708;SHT30;58277;47.316;18.908;2023-05-28T13:46:15;25.10;36.57
70708;SHT30;58277;47.316;18.908;2023-05-28T13:48:39;25.33;36.41
70708;SHT30;58277;47.316;18.908;2023-05-28T13:51:02;25.44;36.34
70708;SHT30;58277;47.316;18.908;2023-05-28T13:53:28;25.47;37.06
70708;SHT30;58277;47.316;18.908;2023-05-28T13:55:51;25.55;36.28
70708;SHT30;58277;47.316;18.908;2023-05-28T13:58:14;25.64;37.25
70708;SHT30;58277;47.316;18.908;2023-05-28T14:00:36;25.53;37.10
70708;SHT30;58277;47.316;18.908;2023-05-28T14:03:01;25.60;36.07
70708;SHT30;58277;47.316;18.908;2023-05-28T14:05:24;25.19;37.52
70708;SHT30;58277;47.316;18.908;2023-05-28T14:07:46;25.17;37.67
70708;SHT30;58277;47.316;18.908;2023-05-28T14:10:10;25.20;37.79
70708;SHT30;58277;47.316;18.908;2023-05-28T14:12:32;25.15;37.97
70708;SHT30;58277;47.316;18.908;2023-05-28T14:14:55;25.17;36.88
70708;SHT30;58277;47.316;18.908;2023-05-28T14:17:18;25.24;37.19
70708;SHT30;58277;47.316;18.908;2023-05-28T14:19:40;25.22;36.77
70708;SHT30;58277;47.316;18.908;2023-05-28T14:22:03;25.15;37.47
70708;SHT30;58277;47.316;18.908;2023-05-28T14:24:26;25.17;38.02
70708;SHT30;58277;47.316;18.908;2023-05-28T14:26:48;25.15;37.49
70708;SHT30;58277;47.316;18.908;2023-05-28T14:29:11;25.05;37.89
70708;SHT30;58277;47.316;18.908;2023-05-28T14:31:35;25.19;37.59
70708;SHT30;58277;47.316;18.908;2023-05-28T14:33:58;25.03;36.86
70708;SHT30;58277;47.316;18.908;2023-05-28T14:36:20;24.85;36.23
70708;SHT30;58277;47.316;18.908;2023-05-28T14:38:44;25.08;34.87
70708;SHT30;58277;47.316;18.908;2023-05-28T14:41:07;25.12;33.56
70708;SHT30;58277;47.316;18.908;2023-05-28T14:43:29;25.20;35.23
70708;SHT30;58277;47.316;18.908;2023-05-28T14:45:52;25.00;35.84
70708;SHT30;58277;47.316;18.908;2023-05-28T14:48:15;25.20;36.12
70708;SHT30;58277;47.316;18.908;2023-05-28T14:50:38;25.19;36.19
70708;SHT30;58277;47.316;18.908;2023-05-28T14:53:01;25.43;35.82
70708;SHT30;58277;47.316;18.908;2023-05-28T14:55:24;25.23;35.61
70708;SHT30;58277;47.316;18.908;2023-05-28T14:57:47;25.10;36.22
70708;SHT30;58277;47.316;18.908;2023-05-28T15:00:10;25.03;36.45
70708;SHT30;58277;47.316;18.908;2023-05-28T15:02:33;24.71;35.67